sensor_id;sensor_type;location;lat;lon;timestamp;P1;durP1;ratioP1;P2;durP2;ratioP2
297;SDS011;133;49.626;9.680;2023-02-15T00:00:11;33.77;;;19.60;;
297;SDS011;133;49.626;9.680;2023-02-15T00:02:37;39.50;;;19.67;;
297;SDS011;133;49.626;9.680;2023-02-15T00:05:03;39.73;;;19.00;;
297;SDS011;133;49.626;9.680;2023-02-15T00:07:29;41.33;;;21.70;;
297;SDS011;133;49.626;9.680;2023-02-15T00:09:55;37.07;;;20.03;;
297;SDS011;133;49.626;9.680;2023-02-15T00:12:20;38.50;;;20.17;;
297;SDS011;133;49.626;9.680;2023-02-15T00:14:47;41.30;;;20.20;;
297;SDS011;133;49.626;9.680;2023-02-15T00:17:12;41.37;;;21.00;;
297;SDS011;133;49.626;9.680;2023-02-15T00:19:38;37.80;;;19.50;;
297;SDS011;133;49.626;9.680;2023-02-15T00:22:05;39.40;;;20.73;;
297;SDS011;133;49.626;9.680;2023-02-15T00:24:30;42.27;;;20.80;;
297;SDS011;133;49.626;9.680;2023-02-15T00:26:56;42.63;;;20.90;;
297;SDS011;133;49.626;9.680;2023-02-15T00:29:22;43.13;;;21.80;;
297;SDS011;133;49.626;9.680;2023-02-15T00:31:48;44.90;;;22.67;;
297;SDS011;133;49.626;9.680;2023-02-15T00:34:17;41.23;;;20.83;;
297;SDS011;133;49.626;9.680;2023-02-15T00:36:48;35.13;;;19.33;;
297;SDS011;133;49.626;9.680;2023-02-15T00:39:14;33.43;;;18.97;;
297;SDS011;133;49.626;9.680;2023-02-15T00:41:40;39.27;;;20.00;;
297;SDS011;133;49.626;9.680;2023-02-15T00:44:06;37.47;;;20.97;;
297;SDS011;133;49.626;9.680;2023-02-15T00:46:32;40.10;;;19.70;;
297;SDS011;133;49.626;9.680;2023-02-15T00:48:58;38.03;;;20.63;;
297;SDS011;133;49.626;9.680;2023-02-15T00:51:24;37.90;;;19.60;;
297;SDS011;133;49.626;9.680;2023-02-15T00:53:49;37.57;;;19.60;;
297;SDS011;133;49.626;9.680;2023-02-15T00:56:15;31.23;;;17.30;;
297;SDS011;133;49.626;9.680;2023-02-15T00:58:41;41.23;;;20.77;;
297;SDS011;133;49.626;9.680;2023-02-15T01:01:09;33.30;;;18.00;;
297;SDS011;133;49.626;9.680;2023-02-15T01:03:36;31.07;;;18.70;;
297;SDS011;133;49.626;9.680;2023-02-15T01:06:01;31.40;;;17.87;;
297;SDS011;133;49.626;9.680;2023-02-15T01:08:27;29.87;;;16.03;;
297;SDS011;133;49.626;9.680;2023-02-15T01:10:53;33.37;;;17.57;;
297;SDS011;133;49.626;9.680;2023-02-15T01:13:19;32.77;;;17.37;;
297;SDS011;133;49.626;9.680;2023-02-15T01:15:45;30.70;;;18.07;;
297;SDS011;133;49.626;9.680;2023-02-15T01:18:16;31.67;;;17.60;;
297;SDS011;133;49.626;9.680;2023-02-15T01:20:42;32.30;;;17.83;;
297;SDS011;133;49.626;9.680;2023-02-15T01:23:08;30.57;;;16.33;;
297;SDS011;133;49.626;9.680;2023-02-15T01:25:34;31.00;;;17.40;;
297;SDS011;133;49.626;9.680;2023-02-15T01:28:00;27.70;;;16.80;;
297;SDS011;133;49.626;9.680;2023-02-15T01:30:26;28.20;;;16.37;;
297;SDS011;133;49.626;9.680;2023-02-15T01:32:51;30.40;;;17.67;;
297;SDS011;133;49.626;9.680;2023-02-15T01:35:17;28.73;;;16.23;;
297;SDS011;133;49.626;9.680;2023-02-15T01:37:43;31.20;;;17.43;;
297;SDS011;133;49.626;9.680;2023-02-15T01:40:11;31.57;;;16.97;;
297;SDS011;133;49.626;9.680;2023-02-15T01:42:39;34.43;;;18.57;;
297;SDS011;133;49.626;9.680;2023-02-15T01:45:14;27.20;;;16.73;;
297;SDS011;133;49.626;9.680;2023-02-15T01:47:48;31.77;;;16.57;;
297;SDS011;133;49.626;9.680;2023-02-15T01:50:40;30.10;;;16.67;;
297;SDS011;133;49.626;9.680;2023-02-15T01:53:20;28.30;;;16.77;;
297;SDS011;133;49.626;9.680;2023-02-15T01:55:59;31.67;;;17.73;;
297;SDS011;133;49.626;9.680;2023-02-15T01:58:28;30.30;;;16.77;;
297;SDS011;133;49.626;9.680;2023-02-15T02:00:55;33.83;;;17.17;;
297;SDS011;133;49.626;9.680;2023-02-15T02:03:27;29.10;;;16.33;;
297;SDS011;133;49.626;9.680;2023-02-15T02:06:16;30.67;;;17.00;;
297;SDS011;133;49.626;9.680;2023-02-15T02:08:42;30.63;;;17.17;;
297;SDS011;133;49.626;9.680;2023-02-15T02:11:12;31.77;;;18.53;;
297;SDS011;133;49.626;9.680;2023-02-15T02:13:40;26.17;;;15.33;;
297;SDS011;133;49.626;9.680;2023-02-15T02:24:01;27.00;;;16.60;;
297;SDS011;133;49.626;9.680;2023-02-15T02:26:42;28.20;;;16.70;;
297;SDS011;133;49.626;9.680;2023-02-15T02:32:28;27.27;;;15.73;;
297;SDS011;133;49.626;9.680;2023-02-15T02:35:19;30.17;;;17.27;;
297;SDS011;133;49.626;9.680;2023-02-15T02:40:47;28.00;;;15.53;;
297;SDS011;133;49.626;9.680;2023-02-15T02:46:02;31.03;;;16.60;;
297;SDS011;133;49.626;9.680;2023-02-15T02:48:35;27.10;;;16.23;;
297;SDS011;133;49.626;9.680;2023-02-15T02:51:01;30.40;;;17.40;;
297;SDS011;133;49.626;9.680;2023-02-15T02:53:27;29.97;;;15.13;;
297;SDS011;133;49.626;9.680;2023-02-15T02:55:56;28.00;;;15.50;;
297;SDS011;133;49.626;9.680;2023-02-15T02:58:31;31.53;;;16.67;;
297;SDS011;133;49.626;9.680;2023-02-15T03:01:19;27.17;;;15.63;;
297;SDS011;133;49.626;9.680;2023-02-15T03:04:04;26.33;;;15.10;;
297;SDS011;133;49.626;9.680;2023-02-15T03:06:50;27.30;;;15.27;;
297;SDS011;133;49.626;9.680;2023-02-15T03:09:27;27.73;;;16.20;;
297;SDS011;133;49.626;9.680;2023-02-15T03:12:28;26.10;;;15.37;;
297;SDS011;133;49.626;9.680;2023-02-15T03:14:56;29.33;;;15.77;;
297;SDS011;133;49.626;9.680;2023-02-15T03:17:42;25.70;;;15.20;;
297;SDS011;133;49.626;9.680;2023-02-15T03:20:31;33.43;;;17.50;;
297;SDS011;133;49.626;9.680;2023-02-15T03:23:01;25.80;;;14.97;;
297;SDS011;133;49.626;9.680;2023-02-15T03:25:34;30.33;;;16.20;;
297;SDS011;133;49.626;9.680;2023-02-15T03:28:08;25.90;;;15.40;;
297;SDS011;133;49.626;9.680;2023-02-15T03:30:37;23.10;;;14.53;;
297;SDS011;133;49.626;9.680;2023-02-15T03:33:07;28.07;;;15.80;;
297;SDS011;133;49.626;9.680;2023-02-15T03:35:36;30.90;;;16.77;;
297;SDS011;133;49.626;9.680;2023-02-15T03:38:09;29.03;;;16.47;;
297;SDS011;133;49.626;9.680;2023-02-15T03:40:42;26.53;;;15.33;;
297;SDS011;133;49.626;9.680;2023-02-15T03:43:45;26.27;;;15.67;;
297;SDS011;133;49.626;9.680;2023-02-15T03:46:26;26.10;;;15.10;;
297;SDS011;133;49.626;9.680;2023-02-15T03:48:58;24.90;;;15.90;;
297;SDS011;133;49.626;9.680;2023-02-15T03:51:37;22.20;;;13.23;;
297;SDS011;133;49.626;9.680;2023-02-15T03:54:11;26.43;;;14.80;;
297;SDS011;133;49.626;9.680;2023-02-15T03:57:03;23.40;;;15.00;;
297;SDS011;133;49.626;9.680;2023-02-15T03:59:48;25.60;;;15.20;;
297;SDS011;133;49.626;9.680;2023-02-15T04:02:49;24.83;;;14.87;;
297;SDS011;133;49.626;9.680;2023-02-15T04:05:31;24.30;;;15.17;;
297;SDS011;133;49.626;9.680;2023-02-15T04:07:57;22.70;;;14.50;;
297;SDS011;133;49.626;9.680;2023-02-15T04:10:22;24.20;;;15.00;;
297;SDS011;133;49.626;9.680;2023-02-15T04:13:07;26.73;;;15.67;;
297;SDS011;133;49.626;9.680;2023-02-15T04:15:32;22.37;;;14.03;;
297;SDS011;133;49.626;9.680;2023-02-15T04:18:16;21.40;;;13.20;;
297;SDS011;133;49.626;9.680;2023-02-15T04:20:45;19.80;;;12.67;;
297;SDS011;133;49.626;9.680;2023-02-15T04:23:30;21.53;;;12.87;;
297;SDS011;133;49.626;9.680;2023-02-15T04:26:15;23.67;;;14.27;;
297;SDS011;133;49.626;9.680;2023-02-15T04:28:41;25.03;;;14.50;;
297;SDS011;133;49.626;9.680;2023-02-15T04:31:07;23.27;;;14.17;;
297;SDS011;133;49.626;9.680;2023-02-15T04:33:32;22.87;;;13.13;;
297;SDS011;133;49.626;9.680;2023-02-15T04:35:58;20.50;;;13.10;;
297;SDS011;133;49.626;9.680;2023-02-15T04:38:24;22.13;;;13.20;;
297;SDS011;133;49.626;9.680;2023-02-15T04:40:50;24.77;;;14.10;;
297;SDS011;133;49.626;9.680;2023-02-15T04:43:19;23.27;;;14.23;;
297;SDS011;133;49.626;9.680;2023-02-15T04:45:49;28.27;;;15.23;;
297;SDS011;133;49.626;9.680;2023-02-15T04:48:15;24.80;;;14.67;;
297;SDS011;133;49.626;9.680;2023-02-15T04:50:41;23.03;;;14.10;;
297;SDS011;133;49.626;9.680;2023-02-15T04:53:08;21.57;;;14.20;;
297;SDS011;133;49.626;9.680;2023-02-15T04:55:33;23.80;;;14.90;;
297;SDS011;133;49.626;9.680;2023-02-15T04:57:59;23.00;;;13.97;;
297;SDS011;133;49.626;9.680;2023-02-15T05:00:25;25.03;;;14.47;;
297;SDS011;133;49.626;9.680;2023-02-15T05:02:50;25.27;;;14.60;;
297;SDS011;133;49.626;9.680;2023-02-15T05:05:16;22.57;;;14.30;;
297;SDS011;133;49.626;9.680;2023-02-15T05:07:42;25.40;;;14.70;;
297;SDS011;133;49.626;9.680;2023-02-15T05:10:07;25.10;;;14.47;;
297;SDS011;133;49.626;9.680;2023-02-15T05:12:33;30.40;;;14.97;;
297;SDS011;133;49.626;9.680;2023-02-15T05:14:59;21.70;;;13.60;;
297;SDS011;133;49.626;9.680;2023-02-15T05:17:24;21.90;;;14.20;;
297;SDS011;133;49.626;9.680;2023-02-15T05:19:50;28.83;;;16.27;;
297;SDS011;133;49.626;9.680;2023-02-15T05:22:15;21.30;;;13.20;;
297;SDS011;133;49.626;9.680;2023-02-15T05:24:41;28.20;;;17.40;;
297;SDS011;133;49.626;9.680;2023-02-15T05:27:25;20.27;;;12.90;;
297;SDS011;133;49.626;9.680;2023-02-15T05:30:10;22.70;;;14.07;;
297;SDS011;133;49.626;9.680;2023-02-15T05:32:37;23.63;;;14.00;;
297;SDS011;133;49.626;9.680;2023-02-15T05:35:04;22.13;;;13.10;;
297;SDS011;133;49.626;9.680;2023-02-15T05:37:30;25.23;;;14.47;;
297;SDS011;133;49.626;9.680;2023-02-15T05:39:56;26.40;;;13.93;;
297;SDS011;133;49.626;9.680;2023-02-15T05:42:22;27.13;;;14.70;;
297;SDS011;133;49.626;9.680;2023-02-15T05:44:47;23.20;;;13.00;;
297;SDS011;133;49.626;9.680;2023-02-15T05:47:13;22.10;;;13.13;;
297;SDS011;133;49.626;9.680;2023-02-15T05:49:38;26.13;;;14.53;;
297;SDS011;133;49.626;9.680;2023-02-15T05:52:04;23.53;;;14.60;;
297;SDS011;133;49.626;9.680;2023-02-15T05:54:30;28.47;;;15.40;;
297;SDS011;133;49.626;9.680;2023-02-15T05:56:55;21.63;;;13.53;;
297;SDS011;133;49.626;9.680;2023-02-15T05:59:21;23.03;;;13.03;;
297;SDS011;133;49.626;9.680;2023-02-15T06:01:46;22.30;;;13.43;;
297;SDS011;133;49.626;9.680;2023-02-15T06:04:12;22.60;;;14.03;;
297;SDS011;133;49.626;9.680;2023-02-15T06:06:37;22.30;;;13.50;;
297;SDS011;133;49.626;9.680;2023-02-15T06:09:03;23.90;;;14.60;;
297;SDS011;133;49.626;9.680;2023-02-15T06:11:29;22.67;;;13.77;;
297;SDS011;133;49.626;9.680;2023-02-15T06:13:54;25.43;;;14.80;;
297;SDS011;133;49.626;9.680;2023-02-15T06:16:20;21.03;;;12.97;;
297;SDS011;133;49.626;9.680;2023-02-15T06:18:46;24.33;;;14.67;;
297;SDS011;133;49.626;9.680;2023-02-15T06:21:11;25.40;;;15.30;;
297;SDS011;133;49.626;9.680;2023-02-15T06:23:37;24.50;;;13.33;;
297;SDS011;133;49.626;9.680;2023-02-15T06:26:03;25.00;;;14.13;;
297;SDS011;133;49.626;9.680;2023-02-15T06:28:28;19.77;;;12.77;;
297;SDS011;133;49.626;9.680;2023-02-15T06:30:54;27.70;;;15.67;;
297;SDS011;133;49.626;9.680;2023-02-15T06:33:20;26.27;;;14.87;;
297;SDS011;133;49.626;9.680;2023-02-15T06:35:45;30.83;;;17.33;;
297;SDS011;133;49.626;9.680;2023-02-15T06:38:11;26.30;;;16.70;;
297;SDS011;133;49.626;9.680;2023-02-15T06:40:37;28.40;;;16.00;;
297;SDS011;133;49.626;9.680;2023-02-15T06:43:02;26.93;;;15.83;;
297;SDS011;133;49.626;9.680;2023-02-15T06:45:28;29.23;;;16.67;;
297;SDS011;133;49.626;9.680;2023-02-15T06:47:53;27.13;;;16.33;;
297;SDS011;133;49.626;9.680;2023-02-15T06:50:19;25.37;;;15.20;;
297;SDS011;133;49.626;9.680;2023-02-15T06:52:45;24.47;;;15.13;;
297;SDS011;133;49.626;9.680;2023-02-15T06:55:10;27.87;;;16.57;;
297;SDS011;133;49.626;9.680;2023-02-15T06:57:36;25.20;;;14.60;;
297;SDS011;133;49.626;9.680;2023-02-15T07:00:02;21.60;;;13.30;;
297;SDS011;133;49.626;9.680;2023-02-15T07:02:29;26.17;;;15.43;;
297;SDS011;133;49.626;9.680;2023-02-15T07:04:56;27.37;;;16.07;;
297;SDS011;133;49.626;9.680;2023-02-15T07:07:21;26.57;;;15.20;;
297;SDS011;133;49.626;9.680;2023-02-15T07:09:47;20.77;;;13.10;;
297;SDS011;133;49.626;9.680;2023-02-15T07:12:13;24.83;;;14.40;;
297;SDS011;133;49.626;9.680;2023-02-15T07:14:57;23.83;;;15.07;;
297;SDS011;133;49.626;9.680;2023-02-15T07:17:23;23.93;;;15.00;;
297;SDS011;133;49.626;9.680;2023-02-15T07:19:49;21.50;;;14.37;;
297;SDS011;133;49.626;9.680;2023-02-15T07:22:14;22.40;;;13.83;;
297;SDS011;133;49.626;9.680;2023-02-15T07:24:40;21.77;;;13.33;;
297;SDS011;133;49.626;9.680;2023-02-15T07:27:06;23.90;;;14.90;;
297;SDS011;133;49.626;9.680;2023-02-15T07:29:32;23.13;;;15.50;;
297;SDS011;133;49.626;9.680;2023-02-15T07:31:58;21.80;;;14.00;;
297;SDS011;133;49.626;9.680;2023-02-15T07:34:23;19.47;;;12.60;;
297;SDS011;133;49.626;9.680;2023-02-15T07:36:50;23.67;;;14.17;;
297;SDS011;133;49.626;9.680;2023-02-15T07:39:16;23.13;;;13.07;;
297;SDS011;133;49.626;9.680;2023-02-15T07:41:41;21.80;;;13.43;;
297;SDS011;133;49.626;9.680;2023-02-15T07:44:10;20.20;;;12.80;;
297;SDS011;133;49.626;9.680;2023-02-15T07:46:38;22.73;;;13.87;;
297;SDS011;133;49.626;9.680;2023-02-15T07:49:04;26.97;;;15.07;;
297;SDS011;133;49.626;9.680;2023-02-15T07:51:29;28.90;;;16.50;;
297;SDS011;133;49.626;9.680;2023-02-15T07:53:55;29.03;;;18.57;;
297;SDS011;133;49.626;9.680;2023-02-15T07:56:20;27.37;;;16.60;;
297;SDS011;133;49.626;9.680;2023-02-15T07:58:46;25.73;;;14.97;;
297;SDS011;133;49.626;9.680;2023-02-15T08:03:46;22.00;;;14.60;;
297;SDS011;133;49.626;9.680;2023-02-15T08:06:12;23.17;;;14.40;;
297;SDS011;133;49.626;9.680;2023-02-15T08:08:38;24.70;;;14.70;;
297;SDS011;133;49.626;9.680;2023-02-15T08:14:15;21.00;;;13.00;;
297;SDS011;133;49.626;9.680;2023-02-15T08:16:47;21.30;;;12.50;;
297;SDS011;133;49.626;9.680;2023-02-15T08:19:18;22.50;;;13.90;;
297;SDS011;133;49.626;9.680;2023-02-15T08:21:55;24.80;;;14.03;;
297;SDS011;133;49.626;9.680;2023-02-15T08:24:22;23.03;;;12.97;;
297;SDS011;133;49.626;9.680;2023-02-15T08:26:50;20.97;;;12.97;;
297;SDS011;133;49.626;9.680;2023-02-15T08:29:17;19.53;;;11.63;;
297;SDS011;133;49.626;9.680;2023-02-15T08:31:45;24.40;;;15.20;;
297;SDS011;133;49.626;9.680;2023-02-15T08:34:13;23.53;;;13.93;;
297;SDS011;133;49.626;9.680;2023-02-15T08:36:43;22.23;;;14.50;;
297;SDS011;133;49.626;9.680;2023-02-15T08:39:10;26.87;;;15.50;;
297;SDS011;133;49.626;9.680;2023-02-15T08:41:36;22.47;;;13.53;;
297;SDS011;133;49.626;9.680;2023-02-15T08:44:04;25.93;;;13.90;;
297;SDS011;133;49.626;9.680;2023-02-15T08:46:32;26.20;;;16.97;;
297;SDS011;133;49.626;9.680;2023-02-15T08:49:01;26.27;;;15.90;;
297;SDS011;133;49.626;9.680;2023-02-15T08:51:28;25.20;;;14.93;;
297;SDS011;133;49.626;9.680;2023-02-15T08:53:56;22.97;;;14.20;;
297;SDS011;133;49.626;9.680;2023-02-15T08:56:25;26.67;;;14.70;;
297;SDS011;133;49.626;9.680;2023-02-15T08:58:53;23.03;;;14.17;;
297;SDS011;133;49.626;9.680;2023-02-15T09:01:20;21.80;;;13.27;;
297;SDS011;133;49.626;9.680;2023-02-15T09:03:48;27.63;;;16.00;;
297;SDS011;133;49.626;9.680;2023-02-15T09:06:18;23.80;;;14.60;;
297;SDS011;133;49.626;9.680;2023-02-15T09:08:44;24.27;;;15.27;;
297;SDS011;133;49.626;9.680;2023-02-15T09:11:11;26.40;;;15.27;;
297;SDS011;133;49.626;9.680;2023-02-15T09:13:38;25.43;;;16.07;;
297;SDS011;133;49.626;9.680;2023-02-15T09:16:05;28.57;;;18.03;;
297;SDS011;133;49.626;9.680;2023-02-15T09:18:34;24.27;;;16.10;;
297;SDS011;133;49.626;9.680;2023-02-15T09:23:41;23.93;;;14.97;;
297;SDS011;133;49.626;9.680;2023-02-15T09:26:14;25.97;;;16.40;;
297;SDS011;133;49.626;9.680;2023-02-15T09:28:41;24.87;;;16.27;;
297;SDS011;133;49.626;9.680;2023-02-15T09:33:35;22.97;;;14.03;;
297;SDS011;133;49.626;9.680;2023-02-15T09:36:02;22.30;;;14.47;;
297;SDS011;133;49.626;9.680;2023-02-15T09:38:28;29.20;;;18.03;;
297;SDS011;133;49.626;9.680;2023-02-15T09:52:33;23.40;;;15.70;;
297;SDS011;133;49.626;9.680;2023-02-15T09:57:46;23.70;;;15.57;;
297;SDS011;133;49.626;9.680;2023-02-15T10:00:22;28.57;;;17.60;;
297;SDS011;133;49.626;9.680;2023-02-15T10:03:15;23.43;;;14.73;;
297;SDS011;133;49.626;9.680;2023-02-15T10:17:40;26.57;;;16.30;;
297;SDS011;133;49.626;9.680;2023-02-15T10:33:46;24.27;;;15.40;;
297;SDS011;133;49.626;9.680;2023-02-15T10:45:02;25.90;;;15.67;;
297;SDS011;133;49.626;9.680;2023-02-15T10:50:32;33.23;;;18.83;;
297;SDS011;133;49.626;9.680;2023-02-15T11:01:34;24.70;;;14.60;;
297;SDS011;133;49.626;9.680;2023-02-15T11:07:56;23.53;;;14.47;;
297;SDS011;133;49.626;9.680;2023-02-15T11:10:14;32.87;;;18.83;;
297;SDS011;133;49.626;9.680;2023-02-15T11:12:44;26.50;;;16.70;;
297;SDS011;133;49.626;9.680;2023-02-15T11:15:15;25.60;;;15.77;;
297;SDS011;133;49.626;9.680;2023-02-15T11:17:48;28.33;;;16.80;;
297;SDS011;133;49.626;9.680;2023-02-15T11:20:30;27.23;;;16.70;;
297;SDS011;133;49.626;9.680;2023-02-15T11:23:13;22.87;;;15.67;;
297;SDS011;133;49.626;9.680;2023-02-15T11:25:41;23.90;;;15.30;;
297;SDS011;133;49.626;9.680;2023-02-15T11:28:16;22.40;;;13.73;;
297;SDS011;133;49.626;9.680;2023-02-15T11:30:50;23.87;;;16.47;;
297;SDS011;133;49.626;9.680;2023-02-15T11:33:23;21.27;;;13.53;;
297;SDS011;133;49.626;9.680;2023-02-15T11:36:05;31.33;;;18.90;;
297;SDS011;133;49.626;9.680;2023-02-15T11:38:36;25.77;;;16.20;;
297;SDS011;133;49.626;9.680;2023-02-15T11:41:09;27.77;;;16.87;;
297;SDS011;133;49.626;9.680;2023-02-15T11:43:58;23.77;;;17.10;;
297;SDS011;133;49.626;9.680;2023-02-15T11:46:30;27.63;;;20.00;;
297;SDS011;133;49.626;9.680;2023-02-15T11:48:55;25.50;;;16.53;;
297;SDS011;133;49.626;9.680;2023-02-15T11:51:21;23.27;;;16.30;;
297;SDS011;133;49.626;9.680;2023-02-15T11:53:47;26.07;;;17.40;;
297;SDS011;133;49.626;9.680;2023-02-15T11:56:24;25.03;;;17.03;;
297;SDS011;133;49.626;9.680;2023-02-15T11:58:53;24.73;;;16.10;;
297;SDS011;133;49.626;9.680;2023-02-15T12:01:24;27.03;;;15.80;;
297;SDS011;133;49.626;9.680;2023-02-15T12:06:34;26.23;;;16.00;;
297;SDS011;133;49.626;9.680;2023-02-15T12:09:22;25.33;;;16.10;;
297;SDS011;133;49.626;9.680;2023-02-15T12:11:50;24.50;;;15.53;;
297;SDS011;133;49.626;9.680;2023-02-15T12:14:16;23.63;;;15.47;;
297;SDS011;133;49.626;9.680;2023-02-15T12:16:43;25.00;;;15.13;;
297;SDS011;133;49.626;9.680;2023-02-15T12:19:27;24.30;;;15.83;;
297;SDS011;133;49.626;9.680;2023-02-15T12:21:56;27.30;;;17.97;;
297;SDS011;133;49.626;9.680;2023-02-15T12:24:27;27.10;;;16.03;;
297;SDS011;133;49.626;9.680;2023-02-15T12:27:05;24.17;;;15.13;;
297;SDS011;133;49.626;9.680;2023-02-15T12:29:52;22.07;;;14.30;;
297;SDS011;133;49.626;9.680;2023-02-15T12:32:25;28.53;;;17.07;;
297;SDS011;133;49.626;9.680;2023-02-15T12:35:13;27.73;;;18.17;;
297;SDS011;133;49.626;9.680;2023-02-15T12:37:56;29.37;;;16.83;;
297;SDS011;133;49.626;9.680;2023-02-15T12:40:31;24.43;;;15.70;;
297;SDS011;133;49.626;9.680;2023-02-15T12:42:59;29.20;;;15.53;;
297;SDS011;133;49.626;9.680;2023-02-15T12:45:30;27.27;;;16.20;;
297;SDS011;133;49.626;9.680;2023-02-15T12:50:39;30.43;;;18.33;;
297;SDS011;133;49.626;9.680;2023-02-15T12:56:04;27.00;;;17.30;;
297;SDS011;133;49.626;9.680;2023-02-15T12:58:35;25.00;;;17.00;;
297;SDS011;133;49.626;9.680;2023-02-15T13:03:34;26.40;;;16.13;;
297;SDS011;133;49.626;9.680;2023-02-15T13:06:02;28.00;;;17.00;;
297;SDS011;133;49.626;9.680;2023-02-15T13:08:33;28.37;;;16.60;;
297;SDS011;133;49.626;9.680;2023-02-15T13:11:09;23.57;;;15.50;;
297;SDS011;133;49.626;9.680;2023-02-15T13:13:58;24.47;;;14.77;;
297;SDS011;133;49.626;9.680;2023-02-15T13:16:37;23.33;;;14.43;;
297;SDS011;133;49.626;9.680;2023-02-15T13:19:49;23.67;;;15.63;;
297;SDS011;133;49.626;9.680;2023-02-15T13:22:22;26.13;;;15.40;;
297;SDS011;133;49.626;9.680;2023-02-15T13:24:59;24.37;;;15.20;;
297;SDS011;133;49.626;9.680;2023-02-15T13:27:39;26.40;;;15.03;;
297;SDS011;133;49.626;9.680;2023-02-15T13:30:13;25.00;;;16.33;;
297;SDS011;133;49.626;9.680;2023-02-15T13:32:43;32.80;;;20.10;;
297;SDS011;133;49.626;9.680;2023-02-15T13:35:14;25.07;;;16.00;;
297;SDS011;133;49.626;9.680;2023-02-15T13:37:54;28.07;;;16.90;;
297;SDS011;133;49.626;9.680;2023-02-15T13:40:55;24.33;;;15.47;;
297;SDS011;133;49.626;9.680;2023-02-15T13:43:30;25.27;;;16.00;;
297;SDS011;133;49.626;9.680;2023-02-15T13:46:08;24.60;;;14.87;;
297;SDS011;133;49.626;9.680;2023-02-15T13:54:37;23.20;;;15.43;;
297;SDS011;133;49.626;9.680;2023-02-15T14:02:57;23.37;;;15.20;;
297;SDS011;133;49.626;9.680;2023-02-15T14:05:47;25.87;;;16.10;;
297;SDS011;133;49.626;9.680;2023-02-15T14:11:29;22.33;;;14.43;;
297;SDS011;133;49.626;9.680;2023-02-15T14:23:15;25.07;;;17.70;;
297;SDS011;133;49.626;9.680;2023-02-15T14:25:57;24.30;;;17.40;;
297;SDS011;133;49.626;9.680;2023-02-15T14:31:09;26.87;;;18.57;;
297;SDS011;133;49.626;9.680;2023-02-15T14:33:38;23.63;;;17.43;;
297;SDS011;133;49.626;9.680;2023-02-15T14:36:09;24.77;;;17.23;;
297;SDS011;133;49.626;9.680;2023-02-15T14:38:56;23.53;;;16.63;;
297;SDS011;133;49.626;9.680;2023-02-15T14:42:04;27.70;;;18.30;;
297;SDS011;133;49.626;9.680;2023-02-15T14:47:44;31.73;;;20.87;;
297;SDS011;133;49.626;9.680;2023-02-15T14:50:38;25.80;;;17.20;;
297;SDS011;133;49.626;9.680;2023-02-15T14:53:15;29.80;;;19.90;;
297;SDS011;133;49.626;9.680;2023-02-15T14:56:29;25.57;;;18.53;;
297;SDS011;133;49.626;9.680;2023-02-15T15:01:15;29.87;;;19.17;;
297;SDS011;133;49.626;9.680;2023-02-15T15:03:50;27.63;;;18.77;;
297;SDS011;133;49.626;9.680;2023-02-15T15:06:27;26.27;;;17.80;;
297;SDS011;133;49.626;9.680;2023-02-15T15:08:58;27.93;;;18.13;;
297;SDS011;133;49.626;9.680;2023-02-15T15:11:40;31.03;;;19.37;;
297;SDS011;133;49.626;9.680;2023-02-15T15:14:07;32.00;;;18.80;;
297;SDS011;133;49.626;9.680;2023-02-15T15:19:03;29.67;;;17.47;;
297;SDS011;133;49.626;9.680;2023-02-15T15:30:47;31.03;;;19.87;;
297;SDS011;133;49.626;9.680;2023-02-15T15:32:58;29.53;;;18.00;;
297;SDS011;133;49.626;9.680;2023-02-15T15:41:23;28.23;;;17.20;;
297;SDS011;133;49.626;9.680;2023-02-15T15:47:29;29.87;;;17.93;;
297;SDS011;133;49.626;9.680;2023-02-15T15:50:15;28.70;;;17.87;;
297;SDS011;133;49.626;9.680;2023-02-15T15:52:50;30.00;;;18.10;;
297;SDS011;133;49.626;9.680;2023-02-15T15:55:22;27.53;;;17.50;;
297;SDS011;133;49.626;9.680;2023-02-15T15:57:51;33.67;;;18.10;;
297;SDS011;133;49.626;9.680;2023-02-15T16:02:53;32.93;;;18.40;;
297;SDS011;133;49.626;9.680;2023-02-15T16:05:20;30.43;;;19.37;;
297;SDS011;133;49.626;9.680;2023-02-15T16:07:46;36.60;;;20.20;;
297;SDS011;133;49.626;9.680;2023-02-15T16:10:25;35.17;;;19.93;;
297;SDS011;133;49.626;9.680;2023-02-15T16:12:52;36.13;;;20.40;;
297;SDS011;133;49.626;9.680;2023-02-15T16:15:20;36.53;;;20.23;;
297;SDS011;133;49.626;9.680;2023-02-15T16:17:49;35.03;;;20.10;;
297;SDS011;133;49.626;9.680;2023-02-15T16:20:24;33.40;;;20.00;;
297;SDS011;133;49.626;9.680;2023-02-15T16:23:04;35.87;;;19.07;;
297;SDS011;133;49.626;9.680;2023-02-15T16:25:54;36.70;;;20.27;;
297;SDS011;133;49.626;9.680;2023-02-15T16:28:33;36.07;;;19.50;;
297;SDS011;133;49.626;9.680;2023-02-15T16:31:12;35.57;;;21.63;;
297;SDS011;133;49.626;9.680;2023-02-15T16:33:40;36.67;;;21.13;;
297;SDS011;133;49.626;9.680;2023-02-15T16:36:26;37.93;;;21.93;;
297;SDS011;133;49.626;9.680;2023-02-15T16:43:49;41.63;;;21.13;;
297;SDS011;133;49.626;9.680;2023-02-15T16:46:18;36.13;;;21.60;;
297;SDS011;133;49.626;9.680;2023-02-15T16:49:17;38.67;;;23.03;;
297;SDS011;133;49.626;9.680;2023-02-15T16:51:56;43.10;;;25.13;;
297;SDS011;133;49.626;9.680;2023-02-15T16:54:34;37.60;;;22.87;;
297;SDS011;133;49.626;9.680;2023-02-15T16:57:00;43.13;;;24.10;;
297;SDS011;133;49.626;9.680;2023-02-15T16:59:37;40.13;;;22.10;;
297;SDS011;133;49.626;9.680;2023-02-15T17:02:52;41.77;;;24.13;;
297;SDS011;133;49.626;9.680;2023-02-15T17:05:02;37.90;;;22.50;;
297;SDS011;133;49.626;9.680;2023-02-15T17:07:40;38.07;;;22.00;;
297;SDS011;133;49.626;9.680;2023-02-15T17:10:27;36.13;;;20.57;;
297;SDS011;133;49.626;9.680;2023-02-15T17:13:01;29.23;;;19.00;;
297;SDS011;133;49.626;9.680;2023-02-15T17:18:05;29.07;;;17.63;;
297;SDS011;133;49.626;9.680;2023-02-15T17:20:41;32.53;;;19.13;;
297;SDS011;133;49.626;9.680;2023-02-15T17:24:13;31.40;;;19.27;;
297;SDS011;133;49.626;9.680;2023-02-15T17:26:12;27.73;;;16.43;;
297;SDS011;133;49.626;9.680;2023-02-15T17:28:45;29.40;;;18.60;;
297;SDS011;133;49.626;9.680;2023-02-15T17:31:13;28.70;;;17.27;;
297;SDS011;133;49.626;9.680;2023-02-15T17:33:41;29.80;;;17.43;;
297;SDS011;133;49.626;9.680;2023-02-15T17:36:13;27.00;;;17.33;;
297;SDS011;133;49.626;9.680;2023-02-15T17:41:22;30.77;;;19.73;;
297;SDS011;133;49.626;9.680;2023-02-15T17:43:52;33.27;;;19.83;;
297;SDS011;133;49.626;9.680;2023-02-15T17:46:18;25.93;;;16.80;;
297;SDS011;133;49.626;9.680;2023-02-15T17:48:47;30.60;;;17.90;;
297;SDS011;133;49.626;9.680;2023-02-15T17:51:14;28.30;;;17.80;;
297;SDS011;133;49.626;9.680;2023-02-15T17:53:41;27.73;;;16.80;;
297;SDS011;133;49.626;9.680;2023-02-15T17:56:27;25.83;;;16.10;;
297;SDS011;133;49.626;9.680;2023-02-15T17:58:53;27.97;;;17.00;;
297;SDS011;133;49.626;9.680;2023-02-15T18:01:19;26.77;;;16.20;;
297;SDS011;133;49.626;9.680;2023-02-15T18:04:04;26.53;;;15.50;;
297;SDS011;133;49.626;9.680;2023-02-15T18:06:51;26.73;;;16.17;;
297;SDS011;133;49.626;9.680;2023-02-15T18:09:36;30.67;;;17.57;;
297;SDS011;133;49.626;9.680;2023-02-15T18:12:24;27.10;;;16.13;;
297;SDS011;133;49.626;9.680;2023-02-15T18:14:52;26.40;;;16.37;;
297;SDS011;133;49.626;9.680;2023-02-15T18:17:18;31.57;;;18.47;;
297;SDS011;133;49.626;9.680;2023-02-15T18:19:51;28.10;;;16.83;;
297;SDS011;133;49.626;9.680;2023-02-15T18:22:18;30.47;;;17.33;;
297;SDS011;133;49.626;9.680;2023-02-15T18:24:44;33.23;;;18.00;;
297;SDS011;133;49.626;9.680;2023-02-15T18:27:12;33.70;;;19.70;;
297;SDS011;133;49.626;9.680;2023-02-15T18:29:38;31.50;;;18.93;;